Time;durP1;ratioP1;P1;durP2;ratioP2;P2;SDS_P1;SDS_P2;PMS_P1;PMS_P2;Temp;Humidity;BMP_temperature;BMP_pressure;BME280_temperature;BME280_humidity;BME280_pressure;Samples;Min_cycle;Max_cycle;Signal;HPM_P1;HPM_P2
2022/09/22 00:00:57;;;;;;;0.10;0.10;;;;;;;;;;5044339;28;20297;-74
2022/09/22 00:03:23;;;;;;;0.10;0.10;;;;;;;;;;5061208;28;20213;-74
2022/09/22 00:05:57;;;;;;;0.10;0.10;;;;;;;;;;5044050;28;20243;-75
2022/09/22 00:08:23;;;;;;;0.10;0.10;;;;;;;;;;5060587;28;20211;-74
2022/09/22 00:10:58;;;;;;;0.10;0.10;;;;;;;;;;5043974;28;20249;-75
2022/09/22 00:13:24;;;;;;;0.10;0.10;;;;;;;;;;5060260;28;20205;-74
2022/09/22 00:15:51;;;;;;;0.10;0.10;;;;;;;;;;5044168;28;20246;-75
2022/09/22 00:18:17;;;;;;;0.10;0.10;;;;;;;;;;5061423;28;20238;-75
2022/09/22 00:20:43;;;;;;;0.10;0.10;;;;;;;;;;5042090;28;20250;-75
2022/09/22 00:23:11;;;;;;;0.10;0.10;;;;;;;;;;5063705;28;20400;-74
2022/09/22 00:25:39;;;;;;;0.10;0.10;;;;;;;;;;5040111;28;20247;-75
2022/09/22 00:28:05;;;;;;;0.10;0.10;;;;;;;;;;5065304;28;20202;-75
2022/09/22 00:30:31;;;;;;;0.10;0.10;;;;;;;;;;5038262;28;20251;-74
2022/09/22 00:32:57;;;;;;;0.10;0.10;;;;;;;;;;5067404;28;20496;-75
2022/09/22 00:35:24;;;;;;;0.10;0.10;;;;;;;;;;5036542;28;20204;-74
2022/09/22 00:37:50;;;;;;;0.10;0.10;;;;;;;;;;5069012;28;20234;-75
2022/09/22 00:40:18;;;;;;;0.10;0.10;;;;;;;;;;5034838;28;20204;-74
2022/09/22 00:42:44;;;;;;;0.10;0.10;;;;;;;;;;5070578;28;20424;-75
2022/09/22 00:45:11;;;;;;;0.17;0.17;;;;;;;;;;5033309;28;20487;-75
2022/09/22 00:47:39;;;;;;;0.10;0.10;;;;;;;;;;5075948;28;20208;-74
2022/09/22 00:50:11;;;;;;;0.10;0.10;;;;;;;;;;5041972;28;20207;-74
2022/09/22 00:52:39;;;;;;;0.10;0.10;;;;;;;;;;5076071;28;20472;-75
2022/09/22 00:55:07;;;;;;;0.10;0.10;;;;;;;;;;5044614;28;20229;-73
2022/09/22 00:57:36;;;;;;;0.10;0.10;;;;;;;;;;5076651;28;20238;-75
2022/09/22 01:00:04;;;;;;;0.10;0.10;;;;;;;;;;5045713;28;20207;-74
2022/09/22 01:02:32;;;;;;;0.10;0.10;;;;;;;;;;5033987;28;20528;-74
2022/09/22 01:04:58;;;;;;;0.10;0.10;;;;;;;;;;5045690;28;20213;-75
2022/09/22 01:07:26;;;;;;;0.10;0.10;;;;;;;;;;5067179;28;20271;-75
2022/09/22 01:09:54;;;;;;;0.10;0.10;;;;;;;;;;5045245;28;20214;-74
2022/09/22 01:12:21;;;;;;;0.10;0.10;;;;;;;;;;5067043;28;20435;-74
2022/09/22 01:15:02;;;;;;;0.10;0.10;;;;;;;;;;5045466;28;20558;-75
2022/09/22 01:17:31;;;;;;;0.10;0.10;;;;;;;;;;5066988;28;20234;-75
2022/09/22 01:20:09;;;;;;;0.10;0.10;;;;;;;;;;5045413;28;20361;-75
2022/09/22 01:22:48;;;;;;;0.10;0.10;;;;;;;;;;5033706;28;20302;-75
2022/09/22 01:25:31;;;;;;;0.10;0.10;;;;;;;;;;5037848;28;20226;-75
2022/09/22 01:28:13;;;;;;;0.10;0.10;;;;;;;;;;5069645;28;20274;-75
2022/09/22 01:30:43;;;;;;;0.10;0.10;;;;;;;;;;5043607;28;20259;-75
2022/09/22 01:33:20;;;;;;;0.10;0.10;;;;;;;;;;5067353;28;20485;-75
2022/09/22 01:35:51;;;;;;;0.10;0.10;;;;;;;;;;5046030;28;20231;-75
2022/09/22 01:38:23;;;;;;;0.10;0.10;;;;;;;;;;5064252;28;20231;-73
2022/09/22 01:40:52;;;;;;;0.10;0.10;;;;;;;;;;5046912;28;20312;-74
2022/09/22 01:43:24;;;;;;;0.10;0.10;;;;;;;;;;5053411;28;20290;-75
2022/09/22 01:45:53;;;;;;;0.10;0.10;;;;;;;;;;5046914;28;20247;-75
2022/09/22 01:48:20;;;;;;;0.10;0.10;;;;;;;;;;5064240;28;20208;-75
2022/09/22 01:50:50;;;;;;;0.10;0.10;;;;;;;;;;5045728;28;20240;-74
2022/09/22 01:53:18;;;;;;;0.10;0.10;;;;;;;;;;5064274;28;20211;-75
2022/09/22 01:55:45;;;;;;;0.10;0.10;;;;;;;;;;5045145;28;20242;-75
2022/09/22 01:58:13;;;;;;;0.10;0.10;;;;;;;;;;5064835;28;20333;-75
2022/09/22 02:00:41;;;;;;;0.10;0.10;;;;;;;;;;5043115;28;20259;-74
2022/09/22 02:03:10;;;;;;;0.10;0.10;;;;;;;;;;5066814;28;20206;-75
2022/09/22 02:05:40;;;;;;;0.10;0.10;;;;;;;;;;5042805;28;20237;-75
2022/09/22 02:08:08;;;;;;;0.10;0.10;;;;;;;;;;5066593;28;20208;-75
2022/09/22 02:10:36;;;;;;;0.10;0.10;;;;;;;;;;5042148;28;20258;-74
2022/09/22 02:13:02;;;;;;;0.10;0.10;;;;;;;;;;5067584;28;20205;-74
2022/09/22 02:18:17;;;;;;;0.10;0.10;;;;;;;;;;5064931;28;20378;-75
2022/09/22 02:20:44;;;;;;;0.10;0.10;;;;;;;;;;5044325;28;20323;-75
2022/09/22 02:23:10;;;;;;;0.10;0.10;;;;;;;;;;5065164;28;20488;-74
2022/09/22 02:25:37;;;;;;;0.10;0.10;;;;;;;;;;5042487;28;20253;-74
2022/09/22 02:28:05;;;;;;;0.10;0.10;;;;;;;;;;5067481;28;20223;-74
2022/09/22 02:30:32;;;;;;;0.10;0.10;;;;;;;;;;5040761;28;20240;-74
2022/09/22 02:33:00;;;;;;;0.10;0.10;;;;;;;;;;5068524;28;20206;-74
2022/09/22 02:35:29;;;;;;;0.10;0.10;;;;;;;;;;5039363;28;20249;-74
2022/09/22 02:37:59;;;;;;;0.10;0.10;;;;;;;;;;5069294;28;20488;-74
2022/09/22 02:40:28;;;;;;;0.10;0.10;;;;;;;;;;5039391;28;20256;-73
2022/09/22 02:42:59;;;;;;;0.10;0.10;;;;;;;;;;5069602;28;20205;-74
2022/09/22 02:45:27;;;;;;;0.10;0.10;;;;;;;;;;5038853;28;20257;-75
2022/09/22 02:47:56;;;;;;;0.10;0.10;;;;;;;;;;5069363;28;20201;-75
2022/09/22 02:50:23;;;;;;;0.30;0.30;;;;;;;;;;5037724;28;20342;-75
2022/09/22 02:52:57;;;;;;;0.10;0.10;;;;;;;;;;5070130;28;20481;-75
2022/09/22 02:55:24;;;;;;;0.10;0.10;;;;;;;;;;5038330;28;20186;-75
2022/09/22 02:57:50;;;;;;;0.10;0.10;;;;;;;;;;5070076;28;20488;-75
2022/09/22 03:00:17;;;;;;;0.10;0.10;;;;;;;;;;5036252;28;20206;-75
2022/09/22 03:02:43;;;;;;;0.10;0.10;;;;;;;;;;5072254;28;20228;-74
2022/09/22 03:05:09;;;;;;;0.10;0.10;;;;;;;;;;5034027;28;20212;-75
2022/09/22 03:07:35;;;;;;;0.10;0.10;;;;;;;;;;5073961;28;20193;-75
2022/09/22 03:10:03;;;;;;;0.10;0.10;;;;;;;;;;5042380;28;20235;-74
2022/09/22 03:12:30;;;;;;;0.10;0.10;;;;;;;;;;5031370;28;20211;-74
2022/09/22 03:14:56;;;;;;;0.10;0.10;;;;;;;;;;5042971;28;20205;-75
2022/09/22 03:17:22;;;;;;;0.10;0.10;;;;;;;;;;5064458;28;20243;-74
2022/09/22 03:19:49;;;;;;;0.10;0.10;;;;;;;;;;5042788;28;20197;-74
2022/09/22 03:22:15;;;;;;;0.10;0.10;;;;;;;;;;5064655;28;20239;-74
2022/09/22 03:24:41;;;;;;;0.10;0.10;;;;;;;;;;5043196;28;20221;-74
2022/09/22 03:27:09;;;;;;;0.10;0.10;;;;;;;;;;5064621;28;20236;-74
2022/09/22 03:29:35;;;;;;;0.10;0.10;;;;;;;;;;5042710;28;20494;-75
2022/09/22 03:32:02;;;;;;;0.10;0.10;;;;;;;;;;5063575;28;20303;-75
2022/09/22 03:34:28;;;;;;;0.10;0.10;;;;;;;;;;5043726;28;20295;-75
2022/09/22 03:36:54;;;;;;;0.10;0.10;;;;;;;;;;5061704;28;20358;-75
2022/09/22 03:39:21;;;;;;;0.10;0.10;;;;;;;;;;5045549;28;20225;-75
2022/09/22 03:41:47;;;;;;;0.10;0.10;;;;;;;;;;5059512;28;20240;-74
2022/09/22 03:44:15;;;;;;;0.10;0.10;;;;;;;;;;5047055;28;20251;-74
2022/09/22 03:46:41;;;;;;;0.10;0.10;;;;;;;;;;5057911;28;20246;-74
2022/09/22 03:49:08;;;;;;;0.10;0.10;;;;;;;;;;5049133;28;20207;-75
2022/09/22 03:51:34;;;;;;;0.10;0.10;;;;;;;;;;5055885;28;20245;-75
2022/09/22 03:54:00;;;;;;;0.10;0.10;;;;;;;;;;5050323;28;20213;-75
2022/09/22 03:56:27;;;;;;;0.10;0.10;;;;;;;;;;5052746;28;20243;-74
2022/09/22 03:58:53;;;;;;;0.10;0.10;;;;;;;;;;5053599;28;20435;-76
2022/09/22 04:01:21;;;;;;;0.10;0.10;;;;;;;;;;5050997;28;20262;-75
2022/09/22 04:03:48;;;;;;;0.10;0.10;;;;;;;;;;5054969;28;20210;-75
2022/09/22 04:06:14;;;;;;;0.10;0.10;;;;;;;;;;5049085;28;20246;-75
2022/09/22 04:08:40;;;;;;;0.10;0.10;;;;;;;;;;5056751;28;20200;-75
2022/09/22 04:11:07;;;;;;;0.10;0.10;;;;;;;;;;5048439;28;20245;-75
2022/09/22 04:13:34;;;;;;;0.10;0.10;;;;;;;;;;5057870;28;20438;-74
2022/09/22 04:16:00;;;;;;;0.10;0.10;;;;;;;;;;5046208;28;20254;-75
2022/09/22 04:18:28;;;;;;;0.10;0.10;;;;;;;;;;5059354;28;20375;-75
2022/09/22 04:20:56;;;;;;;0.10;0.10;;;;;;;;;;5044996;28;20256;-76
2022/09/22 04:23:22;;;;;;;0.10;0.10;;;;;;;;;;5060734;28;20230;-75
2022/09/22 04:25:48;;;;;;;0.10;0.10;;;;;;;;;;5043486;28;20241;-74
2022/09/22 04:28:14;;;;;;;0.10;0.10;;;;;;;;;;5062687;28;20283;-74
2022/09/22 04:30:42;;;;;;;0.10;0.10;;;;;;;;;;5041233;28;20244;-74
2022/09/22 04:33:08;;;;;;;0.10;0.10;;;;;;;;;;5063913;28;20206;-74
2022/09/22 04:35:37;;;;;;;0.10;0.10;;;;;;;;;;5039780;28;20243;-74
2022/09/22 04:38:03;;;;;;;0.10;0.10;;;;;;;;;;5065348;28;20548;-75
2022/09/22 04:40:29;;;;;;;0.10;0.10;;;;;;;;;;5038234;28;20239;-74
2022/09/22 04:42:56;;;;;;;0.10;0.10;;;;;;;;;;5067416;28;20424;-75
2022/09/22 04:45:22;;;;;;;0.10;0.10;;;;;;;;;;5036383;28;20207;-74
2022/09/22 04:47:49;;;;;;;0.10;0.10;;;;;;;;;;5069155;28;20263;-75
2022/09/22 04:50:17;;;;;;;0.10;0.10;;;;;;;;;;5034149;28;20208;-78
2022/09/22 04:52:46;;;;;;;0.10;0.10;;;;;;;;;;5071040;28;20210;-75
2022/09/22 04:55:14;;;;;;;0.10;0.10;;;;;;;;;;5033625;28;20293;-74
2022/09/22 04:57:40;;;;;;;0.10;0.10;;;;;;;;;;5071064;28;20249;-74
2022/09/22 05:00:07;;;;;;;0.10;0.10;;;;;;;;;;5036363;28;20287;-75
2022/09/22 05:02:34;;;;;;;0.10;0.10;;;;;;;;;;5073271;28;20320;-76
2022/09/22 05:05:00;;;;;;;0.10;0.10;;;;;;;;;;5041600;28;20272;-76
2022/09/22 05:07:27;;;;;;;0.10;0.10;;;;;;;;;;5063439;28;20299;-75
2022/09/22 05:09:54;;;;;;;0.10;0.10;;;;;;;;;;5041915;28;20204;-74
2022/09/22 05:12:21;;;;;;;0.10;0.10;;;;;;;;;;5063446;28;20240;-75
2022/09/22 05:14:47;;;;;;;0.10;0.10;;;;;;;;;;5041643;28;20381;-75
2022/09/22 05:17:13;;;;;;;0.10;0.10;;;;;;;;;;5063368;28;20285;-74
2022/09/22 05:19:40;;;;;;;0.10;0.10;;;;;;;;;;5041928;28;20374;-75
2022/09/22 05:22:06;;;;;;;0.10;0.10;;;;;;;;;;5063206;28;20466;-75
2022/09/22 05:24:32;;;;;;;0.10;0.10;;;;;;;;;;5041453;28;20205;-75
2022/09/22 05:27:00;;;;;;;0.10;0.10;;;;;;;;;;5061347;28;20639;-75
2022/09/22 05:29:26;;;;;;;0.10;0.10;;;;;;;;;;5043239;28;20205;-74
2022/09/22 05:31:53;;;;;;;0.10;0.10;;;;;;;;;;5060574;28;20248;-75
2022/09/22 05:34:19;;;;;;;0.10;0.10;;;;;;;;;;5048580;28;20209;-75
2022/09/22 05:36:45;;;;;;;0.10;0.10;;;;;;;;;;5061701;28;20442;-75
2022/09/22 05:39:11;;;;;;;0.10;0.10;;;;;;;;;;5050124;28;20229;-75
2022/09/22 05:41:38;;;;;;;0.10;0.10;;;;;;;;;;5059610;28;20245;-75
2022/09/22 05:44:06;;;;;;;0.10;0.10;;;;;;;;;;5052096;28;20488;-74
2022/09/22 05:46:32;;;;;;;0.10;0.10;;;;;;;;;;5057845;28;20239;-74
2022/09/22 05:48:58;;;;;;;0.10;0.10;;;;;;;;;;5053140;28;20201;-75
2022/09/22 05:51:25;;;;;;;0.10;0.10;;;;;;;;;;5055939;28;20414;-75
2022/09/22 05:53:52;;;;;;;0.10;0.10;;;;;;;;;;5055284;28;20205;-75
2022/09/22 05:56:18;;;;;;;0.10;0.10;;;;;;;;;;5053935;28;20249;-75
2022/09/22 05:58:46;;;;;;;0.10;0.10;;;;;;;;;;5057063;28;20229;-75
2022/09/22 06:01:14;;;;;;;0.10;0.10;;;;;;;;;;5051682;28;20313;-75
2022/09/22 06:03:40;;;;;;;0.10;0.10;;;;;;;;;;5058960;28;20213;-75
2022/09/22 06:06:06;;;;;;;0.10;0.10;;;;;;;;;;5050769;28;20252;-75
2022/09/22 06:08:33;;;;;;;0.10;0.10;;;;;;;;;;5059981;28;20496;-75
2022/09/22 06:10:59;;;;;;;0.10;0.10;;;;;;;;;;5047764;28;20246;-75
2022/09/22 06:13:25;;;;;;;0.10;0.10;;;;;;;;;;5062844;28;20383;-76
2022/09/22 06:15:52;;;;;;;0.10;0.10;;;;;;;;;;5046763;28;20243;-76
2022/09/22 06:18:19;;;;;;;0.10;0.10;;;;;;;;;;5063474;28;20292;-75
2022/09/22 06:20:46;;;;;;;0.10;0.10;;;;;;;;;;5044912;28;20246;-75
2022/09/22 06:23:14;;;;;;;0.10;0.10;;;;;;;;;;5064967;28;20207;-75
2022/09/22 06:25:40;;;;;;;0.10;0.10;;;;;;;;;;5043948;28;20273;-75
2022/09/22 06:28:08;;;;;;;0.10;0.10;;;;;;;;;;5067750;28;20211;-75
2022/09/22 06:30:35;;;;;;;0.10;0.10;;;;;;;;;;5042355;28;20457;-76
2022/09/22 06:33:02;;;;;;;0.10;0.10;;;;;;;;;;5068569;28;20500;-76
2022/09/22 06:35:35;;;;;;;0.10;0.10;;;;;;;;;;5040490;28;20243;-75
2022/09/22 06:38:01;;;;;;;0.10;0.10;;;;;;;;;;5068689;28;20216;-75
2022/09/22 06:40:28;;;;;;;0.10;0.10;;;;;;;;;;5039984;28;20257;-75
2022/09/22 06:42:56;;;;;;;0.10;0.10;;;;;;;;;;5070310;28;20276;-75
2022/09/22 06:45:23;;;;;;;0.10;0.10;;;;;;;;;;5038753;28;20357;-75
2022/09/22 06:47:50;;;;;;;0.10;0.10;;;;;;;;;;5071335;28;20206;-76
2022/09/22 06:50:16;;;;;;;0.10;0.10;;;;;;;;;;5036628;28;20205;-76
2022/09/22 06:52:44;;;;;;;0.10;0.10;;;;;;;;;;5072275;28;20209;-76
2022/09/22 06:55:11;;;;;;;0.10;0.10;;;;;;;;;;5034984;28;20397;-74
2022/09/22 06:57:37;;;;;;;0.10;0.10;;;;;;;;;;5073441;28;20374;-75
2022/09/22 07:00:05;;;;;;;0.10;0.10;;;;;;;;;;5043116;28;20351;-76
2022/09/22 07:02:32;;;;;;;0.10;0.10;;;;;;;;;;5031742;28;20212;-76
2022/09/22 07:04:58;;;;;;;0.10;0.10;;;;;;;;;;5043158;28;20272;-76
2022/09/22 07:07:25;;;;;;;0.10;0.10;;;;;;;;;;5064908;28;20296;-75
2022/09/22 07:09:53;;;;;;;0.10;0.10;;;;;;;;;;5043026;28;20277;-76
2022/09/22 07:12:21;;;;;;;0.10;0.10;;;;;;;;;;5064651;28;20457;-76
2022/09/22 07:14:48;;;;;;;0.10;0.10;;;;;;;;;;5042903;28;20205;-76
2022/09/22 07:17:15;;;;;;;0.10;0.10;;;;;;;;;;5064725;28;20576;-75
2022/09/22 07:19:41;;;;;;;0.10;0.10;;;;;;;;;;5042697;28;20230;-76
2022/09/22 07:22:07;;;;;;;0.10;0.10;;;;;;;;;;5064762;28;20267;-76
2022/09/22 07:24:34;;;;;;;0.10;0.10;;;;;;;;;;5043384;28;20297;-75
2022/09/22 07:27:03;;;;;;;0.10;0.10;;;;;;;;;;5063465;28;20268;-75
2022/09/22 07:29:29;;;;;;;0.10;0.10;;;;;;;;;;5043950;28;20295;-75
2022/09/22 07:31:58;;;;;;;0.10;0.10;;;;;;;;;;5061446;28;20466;-76
2022/09/22 07:34:24;;;;;;;0.10;0.10;;;;;;;;;;5045127;28;20219;-76
2022/09/22 07:36:51;;;;;;;0.10;0.10;;;;;;;;;;5060473;28;20242;-76
2022/09/22 07:39:17;;;;;;;0.10;0.10;;;;;;;;;;5046627;28;20246;-75
2022/09/22 07:41:43;;;;;;;0.10;0.10;;;;;;;;;;5058473;28;20263;-75
2022/09/22 07:46:52;;;;;;;0.10;0.10;;;;;;;;;;5044065;28;20254;-76
2022/09/22 07:49:21;;;;;;;0.10;0.10;;;;;;;;;;5046049;28;20307;-75
2022/09/22 07:51:48;;;;;;;0.10;0.10;;;;;;;;;;5059353;28;20600;-75
2022/09/22 07:54:15;;;;;;;0.10;0.10;;;;;;;;;;5046872;28;20210;-76
2022/09/22 07:56:42;;;;;;;0.10;0.10;;;;;;;;;;5057826;28;20241;-76
2022/09/22 07:59:11;;;;;;;0.00;0.00;;;;;;;;;;5048369;28;20236;-76
2022/09/22 08:01:40;;;;;;;0.10;0.10;;;;;;;;;;5056716;28;20253;-76
2022/09/22 08:04:11;;;;;;;0.10;0.10;;;;;;;;;;5048989;28;20511;-76
2022/09/22 08:06:37;;;;;;;0.10;0.10;;;;;;;;;;5056682;28;20293;-76
2022/09/22 08:09:07;;;;;;;0.10;0.10;;;;;;;;;;5049561;28;20399;-76
2022/09/22 08:11:33;;;;;;;0.10;0.10;;;;;;;;;;5055499;28;20274;-75
2022/09/22 08:14:00;;;;;;;0.10;0.10;;;;;;;;;;5050568;28;20214;-75
2022/09/22 08:16:29;;;;;;;0.10;0.10;;;;;;;;;;5053764;28;20267;-77
2022/09/22 08:18:56;;;;;;;0.10;0.10;;;;;;;;;;5051854;28;20210;-75
2022/09/22 08:21:23;;;;;;;0.00;0.00;;;;;;;;;;5052497;28;20242;-77
2022/09/22 08:23:51;;;;;;;0.10;0.10;;;;;;;;;;5053469;28;20219;-75
2022/09/22 08:26:18;;;;;;;0.00;0.00;;;;;;;;;;5051295;28;20265;-77
2022/09/22 08:28:45;;;;;;;0.10;0.10;;;;;;;;;;5054436;28;20297;-76
2022/09/22 08:31:12;;;;;;;0.10;0.10;;;;;;;;;;5049513;28;20383;-76
2022/09/22 08:33:41;;;;;;;0.10;0.10;;;;;;;;;;5055858;28;20200;-76
2022/09/22 08:36:07;;;;;;;0.10;0.10;;;;;;;;;;5047820;28;20241;-76
2022/09/22 08:38:34;;;;;;;0.07;0.07;;;;;;;;;;5057910;28;20211;-76
2022/09/22 08:41:04;;;;;;;0.10;0.10;;;;;;;;;;5046381;28;20246;-77
2022/09/22 08:43:32;;;;;;;0.10;0.10;;;;;;;;;;5058168;28;20276;-76
2022/09/22 08:46:00;;;;;;;0.10;0.10;;;;;;;;;;5045964;28;20493;-76
2022/09/22 08:53:59;;;;;;;0.08;0.08;;;;;;;;;;5050957;28;20209;-75
2022/09/22 08:56:29;;;;;;;0.00;0.00;;;;;;;;;;5052928;28;20239;-77
2022/09/22 08:58:58;;;;;;;0.03;0.03;;;;;;;;;;5051476;28;20296;-76
2022/09/22 09:01:30;;;;;;;0.10;0.10;;;;;;;;;;5052451;28;20235;-75
2022/09/22 09:04:02;;;;;;;0.10;0.10;;;;;;;;;;5051588;28;20233;-76
2022/09/22 09:06:34;;;;;;;0.00;0.00;;;;;;;;;;5053982;28;20475;-77
2022/09/22 09:09:07;;;;;;;0.08;0.08;;;;;;;;;;5054077;28;20210;-76
2022/09/22 09:11:44;;;;;;;0.10;0.10;;;;;;;;;;5057804;28;20248;-76
2022/09/22 09:14:21;;;;;;;0.10;0.10;;;;;;;;;;5052125;28;20227;-77
2022/09/22 09:16:50;;;;;;;0.10;0.10;;;;;;;;;;5062158;28;20320;-77
2022/09/22 09:19:18;;;;;;;0.10;0.10;;;;;;;;;;5049738;28;20214;-76
2022/09/22 09:21:49;;;;;;;0.10;0.10;;;;;;;;;;5061743;28;20587;-76
2022/09/22 09:24:19;;;;;;;0.00;0.00;;;;;;;;;;5050279;28;20265;-76
2022/09/22 09:26:49;;;;;;;0.10;0.10;;;;;;;;;;5061664;28;20540;-76
2022/09/22 09:29:18;;;;;;;0.03;0.03;;;;;;;;;;5049767;28;20239;-76
2022/09/22 09:31:47;;;;;;;0.00;0.00;;;;;;;;;;5061148;28;20239;-75
2022/09/22 09:34:15;;;;;;;0.08;0.08;;;;;;;;;;5049929;28;20275;-76
2022/09/22 09:36:43;;;;;;;0.00;0.00;;;;;;;;;;5060538;28;20248;-76
2022/09/22 09:39:13;;;;;;;0.10;0.10;;;;;;;;;;5050748;28;20226;-76
2022/09/22 09:41:40;;;;;;;0.00;0.00;;;;;;;;;;5059670;28;20238;-75
2022/09/22 09:44:07;;;;;;;0.00;0.00;;;;;;;;;;5051437;28;20217;-75
2022/09/22 09:46:39;;;;;;;0.10;0.10;;;;;;;;;;5058416;28;20248;-77
2022/09/22 09:49:07;;;;;;;0.10;0.10;;;;;;;;;;5051845;28;20291;-76
2022/09/22 09:51:35;;;;;;;0.00;0.00;;;;;;;;;;5058119;28;20365;-76
2022/09/22 09:54:05;;;;;;;0.10;0.10;;;;;;;;;;5052977;28;20206;-77
2022/09/22 09:56:35;;;;;;;0.10;0.10;;;;;;;;;;5057190;28;20258;-77
2022/09/22 10:01:47;;;;;;;0.05;0.05;;;;;;;;;;5061081;28;20248;-76
2022/09/22 10:04:17;;;;;;;0.10;0.10;;;;;;;;;;5049459;28;20279;-77
2022/09/22 10:06:44;;;;;;;0.10;0.10;;;;;;;;;;5060763;28;20296;-77
2022/09/22 10:09:11;;;;;;;0.00;0.00;;;;;;;;;;5049974;28;20213;-76
2022/09/22 10:11:40;;;;;;;0.00;0.00;;;;;;;;;;5058761;28;20325;-78
2022/09/22 10:14:16;;;;;;;0.10;0.10;;;;;;;;;;5051258;28;20243;-76
2022/09/22 10:16:50;;;;;;;0.00;0.00;;;;;;;;;;5059897;28;20465;-77
2022/09/22 10:19:20;;;;;;;0.00;0.00;;;;;;;;;;5048486;28;20213;-76
2022/09/22 10:21:47;;;;;;;0.08;0.08;;;;;;;;;;5060922;28;20419;-76
2022/09/22 10:24:22;;;;;;;0.10;0.10;;;;;;;;;;5048925;28;20426;-77
2022/09/22 10:26:55;;;;;;;0.00;0.00;;;;;;;;;;5060989;28;20262;-77
2022/09/22 10:29:21;;;;;;;0.00;0.00;;;;;;;;;;5047690;28;20238;-76
2022/09/22 10:32:02;;;;;;;0.10;0.10;;;;;;;;;;5060999;28;20258;-77
2022/09/22 10:34:30;;;;;;;0.00;0.00;;;;;;;;;;5042310;28;20368;-76
2022/09/22 10:36:57;;;;;;;0.00;0.00;;;;;;;;;;5068896;28;20237;-77
2022/09/22 10:39:27;;;;;;;0.10;0.10;;;;;;;;;;5045035;28;20205;-76
2022/09/22 10:41:55;;;;;;;0.00;0.00;;;;;;;;;;5062542;28;20241;-76
2022/09/22 10:44:25;;;;;;;0.10;0.10;;;;;;;;;;5046634;28;20233;-77
2022/09/22 10:46:57;;;;;;;0.00;0.00;;;;;;;;;;5059073;28;20287;-76
2022/09/22 10:49:30;;;;;;;0.10;0.10;;;;;;;;;;5048622;28;20509;-76
2022/09/22 10:52:05;;;;;;;0.00;0.00;;;;;;;;;;5062912;28;20366;-76
2022/09/22 10:54:41;;;;;;;0.00;0.00;;;;;;;;;;5044123;28;20215;-76
2022/09/22 10:57:15;;;;;;;0.00;0.00;;;;;;;;;;5065334;28;20237;-76
2022/09/22 10:59:47;;;;;;;0.00;0.00;;;;;;;;;;5043288;28;20220;-76
2022/09/22 11:02:33;;;;;;;0.10;0.10;;;;;;;;;;5065275;28;20459;-75
2022/09/22 11:05:04;;;;;;;0.05;0.05;;;;;;;;;;5043596;28;20268;-76
2022/09/22 11:13:42;;;;;;;0.00;0.00;;;;;;;;;;5001961;28;20289;-76
2022/09/22 11:16:27;;;;;;;0.00;0.00;;;;;;;;;;5037450;28;20317;-76
2022/09/22 11:19:04;;;;;;;0.03;0.03;;;;;;;;;;5052522;28;20230;-75
2022/09/22 11:21:39;;;;;;;0.00;0.00;;;;;;;;;;5055905;28;20244;-77
2022/09/22 11:24:22;;;;;;;0.10;0.10;;;;;;;;;;5049960;28;20207;-76
2022/09/22 11:26:50;;;;;;;0.10;0.10;;;;;;;;;;5060350;28;20312;-76
2022/09/22 11:29:34;;;;;;;0.10;0.10;;;;;;;;;;5046580;28;20289;-76
2022/09/22 11:32:07;;;;;;;0.10;0.10;;;;;;;;;;5062988;28;20247;-76
2022/09/22 11:34:43;;;;;;;0.08;0.08;;;;;;;;;;5042832;28;20250;-76
2022/09/22 11:37:25;;;;;;;0.00;0.00;;;;;;;;;;5064800;28;20417;-77
2022/09/22 11:39:57;;;;;;;0.00;0.00;;;;;;;;;;5042906;28;20230;-76
2022/09/22 11:42:27;;;;;;;0.00;0.00;;;;;;;;;;5064690;28;20240;-77
2022/09/22 11:44:58;;;;;;;0.10;0.10;;;;;;;;;;5042930;28;20287;-76
2022/09/22 11:47:42;;;;;;;0.00;0.00;;;;;;;;;;5064769;28;20241;-76
2022/09/22 11:50:35;;;;;;;0.10;0.10;;;;;;;;;;5019718;28;20210;-76
2022/09/22 11:53:16;;;;;;;0.10;0.10;;;;;;;;;;5067262;28;20212;-77
2022/09/22 11:55:46;;;;;;;0.05;0.05;;;;;;;;;;5042481;28;20302;-76
2022/09/22 11:58:14;;;;;;;0.03;0.03;;;;;;;;;;5063486;28;20226;-77
2022/09/22 12:00:44;;;;;;;0.10;0.10;;;;;;;;;;5041578;28;20313;-70
2022/09/22 12:03:13;;;;;;;0.03;0.03;;;;;;;;;;5064753;28;20215;-69
2022/09/22 12:05:42;;;;;;;0.00;0.00;;;;;;;;;;5041093;28;20244;-70
2022/09/22 12:08:12;;;;;;;0.00;0.00;;;;;;;;;;5064502;28;20218;-70
2022/09/22 12:10:39;;;;;;;0.00;0.00;;;;;;;;;;5041432;28;20268;-70
2022/09/22 12:13:07;;;;;;;0.10;0.10;;;;;;;;;;5064904;28;20209;-70
2022/09/22 12:15:36;;;;;;;0.00;0.00;;;;;;;;;;5039473;28;20299;-71
2022/09/22 12:18:09;;;;;;;0.10;0.10;;;;;;;;;;5065438;28;20232;-70
2022/09/22 12:20:40;;;;;;;0.00;0.00;;;;;;;;;;5039812;28;20253;-70
2022/09/22 12:23:24;;;;;;;0.00;0.00;;;;;;;;;;5064711;28;20377;-69
2022/09/22 12:25:53;;;;;;;0.10;0.10;;;;;;;;;;5030584;28;20242;-71
2022/09/22 12:28:23;;;;;;;0.03;0.03;;;;;;;;;;5060956;28;20211;-71
2022/09/22 12:30:53;;;;;;;0.10;0.10;;;;;;;;;;5043489;28;20520;-70
2022/09/22 12:33:21;;;;;;;0.00;0.00;;;;;;;;;;5060560;28;20220;-71
2022/09/22 12:35:52;;;;;;;0.00;0.00;;;;;;;;;;5043256;28;20258;-70
2022/09/22 12:38:20;;;;;;;0.00;0.00;;;;;;;;;;5060710;28;20209;-70
2022/09/22 12:40:48;;;;;;;0.00;0.00;;;;;;;;;;5042767;28;20241;-70
2022/09/22 12:43:19;;;;;;;0.08;0.08;;;;;;;;;;5065342;28;20208;-70
2022/09/22 12:45:45;;;;;;;0.03;0.03;;;;;;;;;;5046522;28;20268;-70
2022/09/22 12:48:16;;;;;;;0.00;0.00;;;;;;;;;;5067169;28;20210;-70
2022/09/22 12:50:43;;;;;;;0.00;0.00;;;;;;;;;;5045551;28;20309;-70
2022/09/22 12:53:11;;;;;;;0.08;0.08;;;;;;;;;;5067600;28;20207;-70
2022/09/22 12:55:38;;;;;;;0.10;0.10;;;;;;;;;;5044244;28;20245;-70
2022/09/22 12:58:32;;;;;;;0.10;0.10;;;;;;;;;;5068678;28;20232;-71
2022/09/22 13:01:21;;;;;;;0.00;0.00;;;;;;;;;;5048886;28;20248;-70
2022/09/22 13:03:49;;;;;;;0.08;0.08;;;;;;;;;;5057513;28;20202;-70
2022/09/22 13:06:34;;;;;;;0.10;0.10;;;;;;;;;;5054249;28;20261;-70
2022/09/22 13:09:18;;;;;;;0.00;0.00;;;;;;;;;;5053657;28;20211;-71
2022/09/22 13:12:03;;;;;;;0.00;0.00;;;;;;;;;;5061779;28;20437;-69
2022/09/22 13:14:49;;;;;;;0.00;0.00;;;;;;;;;;5045928;28;20230;-70
2022/09/22 13:17:41;;;;;;;0.00;0.00;;;;;;;;;;5067141;28;20299;-70
2022/09/22 13:20:14;;;;;;;0.10;0.10;;;;;;;;;;5037329;28;20246;-70
2022/09/22 13:22:41;;;;;;;0.10;0.10;;;;;;;;;;5045077;28;20242;-70
2022/09/22 13:25:30;;;;;;;0.08;0.08;;;;;;;;;;5036057;28;20207;-70
2022/09/22 13:28:20;;;;;;;0.00;0.00;;;;;;;;;;5064284;28;20275;-69
2022/09/22 13:30:47;;;;;;;0.00;0.00;;;;;;;;;;5025875;28;20253;-70
2022/09/22 13:33:24;;;;;;;0.10;0.10;;;;;;;;;;5065558;28;20215;-70
2022/09/22 13:35:57;;;;;;;0.10;0.10;;;;;;;;;;5046838;28;20257;-70
2022/09/22 13:38:23;;;;;;;0.10;0.10;;;;;;;;;;5063328;28;20277;-70
2022/09/22 13:40:51;;;;;;;0.10;0.10;;;;;;;;;;5046528;28;20533;-70
2022/09/22 13:43:23;;;;;;;0.10;0.10;;;;;;;;;;5064521;28;20208;-70
2022/09/22 13:45:50;;;;;;;0.08;0.08;;;;;;;;;;5046084;28;20259;-70
2022/09/22 13:48:17;;;;;;;0.10;0.10;;;;;;;;;;5064733;28;20205;-70
2022/09/22 13:50:48;;;;;;;0.03;0.03;;;;;;;;;;5043731;28;20273;-70
2022/09/22 13:53:17;;;;;;;0.00;0.00;;;;;;;;;;5064386;28;20197;-70
2022/09/22 13:55:43;;;;;;;0.00;0.00;;;;;;;;;;5044728;28;20443;-70
2022/09/22 13:58:13;;;;;;;0.05;0.05;;;;;;;;;;5066156;28;20296;-70
2022/09/22 14:00:41;;;;;;;0.10;0.10;;;;;;;;;;5043496;28;20253;-71
2022/09/22 14:03:16;;;;;;;0.10;0.10;;;;;;;;;;5066506;28;20213;-70
2022/09/22 14:05:42;;;;;;;0.03;0.03;;;;;;;;;;5044212;28;20414;-70
2022/09/22 14:08:14;;;;;;;0.10;0.10;;;;;;;;;;5066420;28;20526;-70
2022/09/22 14:10:42;;;;;;;0.10;0.10;;;;;;;;;;5043485;28;20246;-69
2022/09/22 14:13:23;;;;;;;0.00;0.00;;;;;;;;;;5066566;28;20211;-70
2022/09/22 14:15:50;;;;;;;0.00;0.00;;;;;;;;;;5046085;28;20487;-69
2022/09/22 14:18:19;;;;;;;0.08;0.08;;;;;;;;;;5064161;28;20509;-70
2022/09/22 14:20:45;;;;;;;0.00;0.00;;;;;;;;;;5044744;28;20440;-70
2022/09/22 14:23:16;;;;;;;0.08;0.08;;;;;;;;;;5065456;28;20280;-70
2022/09/22 14:25:42;;;;;;;0.10;0.10;;;;;;;;;;5043893;28;20535;-69
2022/09/22 14:28:14;;;;;;;0.10;0.10;;;;;;;;;;5065804;28;20493;-70
2022/09/22 14:30:41;;;;;;;0.05;0.05;;;;;;;;;;5042827;28;20323;-70
2022/09/22 14:33:14;;;;;;;0.00;0.00;;;;;;;;;;5066147;28;20217;-70
2022/09/22 14:35:41;;;;;;;0.00;0.00;;;;;;;;;;5042935;28;20570;-70
2022/09/22 14:38:07;;;;;;;0.00;0.00;;;;;;;;;;5066664;28;20224;-70
2022/09/22 14:40:37;;;;;;;0.10;0.10;;;;;;;;;;5041392;28;20449;-71
2022/09/22 14:43:07;;;;;;;0.00;0.00;;;;;;;;;;5067020;28;20511;-70
2022/09/22 14:45:34;;;;;;;0.10;0.10;;;;;;;;;;5040938;28;20470;-69
2022/09/22 14:48:09;;;;;;;0.00;0.00;;;;;;;;;;5067862;28;20275;-70
2022/09/22 14:50:37;;;;;;;0.10;0.10;;;;;;;;;;5041558;28;20249;-70
2022/09/22 14:53:07;;;;;;;0.00;0.00;;;;;;;;;;5066604;28;20396;-69
2022/09/22 14:55:35;;;;;;;0.00;0.00;;;;;;;;;;5040819;28;20240;-70
2022/09/22 14:58:03;;;;;;;0.08;0.08;;;;;;;;;;5066846;28;20252;-69
2022/09/22 15:03:17;;;;;;;0.08;0.08;;;;;;;;;;5063828;28;20194;-69
2022/09/22 15:05:44;;;;;;;0.00;0.00;;;;;;;;;;5042271;28;20336;-70
2022/09/22 15:08:14;;;;;;;0.10;0.10;;;;;;;;;;5053050;28;20313;-69
2022/09/22 15:10:51;;;;;;;0.00;0.00;;;;;;;;;;5041938;28;20263;-69
2022/09/22 15:13:19;;;;;;;0.00;0.00;;;;;;;;;;5063450;28;20205;-70
2022/09/22 15:15:46;;;;;;;0.00;0.00;;;;;;;;;;5043653;28;20249;-70
2022/09/22 15:18:18;;;;;;;0.00;0.00;;;;;;;;;;5063872;28;20233;-70